Time;durP1;ratioP1;P1;durP2;ratioP2;P2;SDS_P1;SDS_P2;PMS_P1;PMS_P2;Temp;Humidity;BMP_temperature;BMP_pressure;BME280_temperature;BME280_humidity;BME280_pressure;Samples;Min_cycle;Max_cycle;Signal;HPM_P1;HPM_P2
2022/08/29 00:00:40;;;;;;;3.42;1.20;;;15.00;99.00;;;;;;5030154;28;20083;-72
2022/08/29 00:03:06;;;;;;;6.97;0.98;;;15.00;99.00;;;;;;5029651;28;20025;-72
2022/08/29 00:05:34;;;;;;;3.65;1.40;;;15.00;99.10;;;;;;5029861;28;20022;-72
2022/08/29 00:08:01;;;;;;;2.53;1.23;;;14.80;99.30;;;;;;5029901;28;20124;-72
2022/08/29 00:10:28;;;;;;;4.88;1.75;;;14.90;99.20;;;;;;5029353;28;20025;-72
2022/08/29 00:12:54;;;;;;;4.07;1.60;;;14.80;99.50;;;;;;5029054;28;20018;-72
2022/08/29 00:15:20;;;;;;;7.30;1.50;;;14.90;99.30;;;;;;5027913;28;20471;-72
2022/08/29 00:17:46;;;;;;;5.63;1.52;;;14.80;99.30;;;;;;5029949;28;20450;-72
2022/08/29 00:20:17;;;;;;;4.88;1.40;;;14.80;99.40;;;;;;5029670;28;20091;-72
2022/08/29 00:22:43;;;;;;;3.95;1.38;;;14.80;99.70;;;;;;5029868;28;20032;-72
2022/08/29 00:25:10;;;;;;;4.90;1.10;;;14.80;99.50;;;;;;5029972;28;20017;-72
2022/08/29 00:27:36;;;;;;;5.32;2.08;;;14.70;99.60;;;;;;5029358;28;20057;-72
2022/08/29 00:30:03;;;;;;;3.47;1.40;;;14.70;99.40;;;;;;5029274;28;20782;-72
2022/08/29 00:32:33;;;;;;;6.60;2.00;;;14.70;99.60;;;;;;5028369;28;20446;-72
2022/08/29 00:35:04;;;;;;;2.95;1.50;;;14.60;99.50;;;;;;5029614;28;20022;-72
2022/08/29 00:37:30;;;;;;;2.67;1.00;;;14.60;99.70;;;;;;5029645;28;20248;-72
2022/08/29 00:39:55;;;;;;;6.43;1.30;;;14.60;99.70;;;;;;5029530;28;20122;-72
2022/08/29 00:42:21;;;;;;;2.60;1.40;;;14.60;99.60;;;;;;5029105;28;20030;-72
2022/08/29 00:44:46;;;;;;;5.53;1.90;;;14.60;99.70;;;;;;5029196;28;20040;-72
2022/08/29 00:47:18;;;;;;;6.25;1.30;;;14.60;99.70;;;;;;5029205;28;20053;-72
2022/08/29 00:49:46;;;;;;;2.83;0.90;;;14.50;99.90;;;;;;5029361;28;20071;-72
2022/08/29 00:52:18;;;;;;;5.22;1.50;;;14.60;99.90;;;;;;5029392;28;20064;-72
2022/08/29 00:54:49;;;;;;;6.00;1.85;;;14.40;99.90;;;;;;5029622;28;20026;-72
2022/08/29 00:57:18;;;;;;;3.53;1.50;;;14.50;99.90;;;;;;5028904;28;20121;-72
2022/08/29 00:59:44;;;;;;;4.70;2.08;;;14.50;99.90;;;;;;5029494;28;20021;-72
2022/08/29 01:02:10;;;;;;;4.15;1.05;;;14.40;99.80;;;;;;5029437;28;20446;-72
2022/08/29 01:04:38;;;;;;;4.40;1.45;;;14.40;99.90;;;;;;5029324;28;20064;-72
2022/08/29 01:07:04;;;;;;;3.47;1.23;;;14.50;99.90;;;;;;5029411;28;20063;-72
2022/08/29 01:09:31;;;;;;;5.78;1.67;;;14.40;99.90;;;;;;5028842;28;20083;-72
2022/08/29 01:12:15;;;;;;;4.15;1.70;;;14.40;99.90;;;;;;5028244;28;20033;-72
2022/08/29 01:14:46;;;;;;;;;;;14.50;99.90;;;;;;5030519;28;20021;-72
2022/08/29 01:17:16;;;;;;;7.47;1.55;;;14.40;99.90;;;;;;5029587;28;19913;-72
2022/08/29 01:19:44;;;;;;;2.83;1.38;;;14.40;99.90;;;;;;5029113;28;20022;-72
2022/08/29 01:22:32;;;;;;;5.55;1.23;;;14.50;99.90;;;;;;5029687;28;20103;-72
2022/08/29 01:24:58;;;;;;;4.20;1.40;;;14.40;99.80;;;;;;5032419;28;20102;-72
2022/08/29 01:27:28;;;;;;;6.40;1.80;;;14.40;99.90;;;;;;5032723;28;20080;-72
2022/08/29 01:29:54;;;;;;;4.50;1.60;;;14.30;99.90;;;;;;5032840;28;20037;-72
2022/08/29 01:32:23;;;;;;;4.80;1.55;;;14.30;99.90;;;;;;5032951;28;20045;-72
2022/08/29 01:34:48;;;;;;;4.72;1.83;;;14.20;99.90;;;;;;5032100;28;20116;-72
2022/08/29 01:37:15;;;;;;;3.53;1.38;;;14.30;99.90;;;;;;5032236;28;20052;-72
2022/08/29 01:39:43;;;;;;;3.25;1.40;;;14.50;99.90;;;;;;5032469;28;20518;-72
2022/08/29 01:42:19;;;;;;;7.25;1.67;;;14.20;99.90;;;;;;5032690;28;20466;-72
2022/08/29 01:44:53;;;;;;;3.45;1.40;;;14.10;99.90;;;;;;5032570;28;20429;-72
2022/08/29 01:47:20;;;;;;;2.67;1.30;;;14.00;99.90;;;;;;5032340;28;20091;-72
2022/08/29 01:49:46;;;;;;;6.57;1.67;;;14.00;99.90;;;;;;5032317;28;20079;-72
2022/08/29 01:52:12;;;;;;;7.30;1.90;;;14.00;99.90;;;;;;5032387;28;20038;-72
2022/08/29 01:54:40;;;;;;;5.10;1.67;;;13.80;99.90;;;;;;5032338;28;20104;-72
2022/08/29 01:57:06;;;;;;;4.20;1.30;;;13.90;99.90;;;;;;5032359;28;20104;-72
2022/08/29 01:59:32;;;;;;;5.63;1.80;;;13.70;99.90;;;;;;5032370;28;20543;-72
2022/08/29 02:02:09;;;;;;;6.35;1.42;;;13.80;99.90;;;;;;5032008;28;20029;-72
2022/08/29 02:04:34;;;;;;;6.18;1.30;;;13.80;99.90;;;;;;5032600;28;20025;-72
2022/08/29 02:07:01;;;;;;;3.90;1.38;;;13.80;99.90;;;;;;5032189;28;20445;-72
2022/08/29 02:09:27;;;;;;;4.70;1.85;;;13.80;99.90;;;;;;5031707;28;20018;-72
2022/08/29 02:11:55;;;;;;;4.63;1.83;;;13.60;99.90;;;;;;5032236;28;20033;-72
2022/08/29 02:14:22;;;;;;;3.65;1.60;;;13.70;99.90;;;;;;5031699;28;20046;-72
2022/08/29 02:16:48;;;;;;;8.82;1.85;;;13.70;99.90;;;;;;5030801;28;20120;-72
2022/08/29 02:19:13;;;;;;;11.25;1.90;;;13.60;99.90;;;;;;5031780;28;20108;-72
2022/08/29 02:21:39;;;;;;;4.10;2.05;;;13.60;99.90;;;;;;5032238;28;20029;-72
2022/08/29 02:24:06;;;;;;;5.85;1.50;;;13.70;99.90;;;;;;5031326;28;20009;-72
2022/08/29 02:26:31;;;;;;;5.40;1.45;;;13.60;99.90;;;;;;5031586;28;20053;-72
2022/08/29 02:28:57;;;;;;;7.30;1.63;;;13.60;99.90;;;;;;5031408;28;20367;-72
2022/08/29 02:31:24;;;;;;;2.40;1.58;;;13.40;99.90;;;;;;5031701;28;20034;-72
2022/08/29 02:33:51;;;;;;;8.07;2.55;;;13.60;99.90;;;;;;5030841;28;20032;-72
2022/08/29 02:36:18;;;;;;;5.38;1.73;;;13.30;99.90;;;;;;5031685;28;20085;-72
2022/08/29 02:38:44;;;;;;;4.50;1.73;;;13.40;99.90;;;;;;5030874;28;20057;-72
2022/08/29 02:41:09;;;;;;;7.15;2.17;;;13.30;99.90;;;;;;5031729;28;20053;-72
2022/08/29 02:43:35;;;;;;;3.63;1.77;;;13.30;99.90;;;;;;5031778;28;20029;-72
2022/08/29 02:46:00;;;;;;;4.05;1.95;;;13.20;99.90;;;;;;5031292;28;20087;-72
2022/08/29 02:48:27;;;;;;;2.55;1.25;;;13.30;99.90;;;;;;5031372;28;20122;-72
2022/08/29 02:50:55;;;;;;;6.47;1.80;;;13.20;99.90;;;;;;5031263;28;20028;-72
2022/08/29 02:53:24;;;;;;;4.70;1.80;;;13.20;99.90;;;;;;5030931;28;20036;-72
2022/08/29 02:55:50;;;;;;;7.53;1.88;;;13.10;99.90;;;;;;5030878;28;20528;-72
2022/08/29 02:58:16;;;;;;;4.93;1.95;;;13.10;99.90;;;;;;5030780;28;20030;-72
2022/08/29 03:00:42;;;;;;;5.63;2.15;;;13.00;99.90;;;;;;5031259;28;20113;-72
2022/08/29 03:03:08;;;;;;;3.00;1.88;;;13.00;99.90;;;;;;5031286;28;20079;-72
2022/08/29 03:05:35;;;;;;;3.63;1.70;;;13.00;99.90;;;;;;5030199;28;20018;-72
2022/08/29 03:08:04;;;;;;;7.32;2.05;;;12.90;99.90;;;;;;5030722;28;20091;-72
2022/08/29 03:10:30;;;;;;;6.15;2.17;;;13.00;99.90;;;;;;5030924;28;20394;-72
2022/08/29 03:12:56;;;;;;;5.85;2.58;;;13.10;99.90;;;;;;5030968;28;20100;-72
2022/08/29 03:15:22;;;;;;;4.93;1.98;;;13.00;99.90;;;;;;5030936;28;20065;-72
2022/08/29 03:17:48;;;;;;;10.88;2.63;;;13.00;99.90;;;;;;5030771;28;20099;-72
2022/08/29 03:20:16;;;;;;;5.07;1.77;;;12.90;99.90;;;;;;5030166;28;20124;-73
2022/08/29 03:22:42;;;;;;;5.03;2.00;;;13.00;99.90;;;;;;5030816;28;20106;-72
2022/08/29 03:25:09;;;;;;;6.38;2.38;;;13.00;99.90;;;;;;5030959;28;20385;-73
2022/08/29 03:27:34;;;;;;;5.30;2.10;;;13.00;99.90;;;;;;5030569;28;20124;-73
2022/08/29 03:30:00;;;;;;;4.82;2.17;;;12.90;99.90;;;;;;5030617;28;20112;-73
2022/08/29 03:32:26;;;;;;;4.22;1.83;;;12.90;99.90;;;;;;5030141;28;20045;-72
2022/08/29 03:34:53;;;;;;;5.25;1.70;;;12.80;99.90;;;;;;5030143;28;20108;-73
2022/08/29 03:37:19;;;;;;;7.15;2.78;;;12.80;99.90;;;;;;5029772;28;20100;-73
2022/08/29 03:39:44;;;;;;;6.00;2.10;;;12.70;99.90;;;;;;5029579;28;20041;-73
2022/08/29 03:42:10;;;;;;;7.10;2.22;;;12.80;99.90;;;;;;5029992;28;20057;-73
2022/08/29 03:44:38;;;;;;;6.20;2.17;;;12.80;99.90;;;;;;5030289;28;20378;-72
2022/08/29 03:47:05;;;;;;;5.68;2.25;;;12.70;99.90;;;;;;5029872;28;20037;-73
2022/08/29 03:49:30;;;;;;;5.35;1.90;;;12.80;99.90;;;;;;5029898;28;20037;-73
2022/08/29 03:51:57;;;;;;;6.45;2.20;;;12.70;99.90;;;;;;5030479;28;20113;-73
2022/08/29 03:54:22;;;;;;;9.07;2.78;;;12.70;99.90;;;;;;5029816;28;20388;-73
2022/08/29 03:56:48;;;;;;;9.05;3.50;;;12.70;99.90;;;;;;5030373;28;20087;-73
2022/08/29 03:59:15;;;;;;;7.93;2.50;;;12.70;99.90;;;;;;5030030;28;20049;-72
2022/08/29 04:01:41;;;;;;;4.07;2.90;;;12.70;99.90;;;;;;5029969;28;20026;-73
2022/08/29 04:04:07;;;;;;;7.95;3.08;;;13.90;99.90;;;;;;5029815;28;20025;-73
2022/08/29 04:06:32;;;;;;;5.13;3.25;;;13.00;99.90;;;;;;5030130;28;20378;-73
2022/08/29 04:08:59;;;;;;;7.38;2.72;;;13.00;99.90;;;;;;5028606;28;20029;-72
2022/08/29 04:11:25;;;;;;;6.80;3.20;;;13.10;99.90;;;;;;5029971;28;20105;-73
2022/08/29 04:13:52;;;;;;;9.68;3.45;;;13.20;99.90;;;;;;5029901;28;20024;-73
2022/08/29 04:16:21;;;;;;;6.28;3.15;;;13.30;99.90;;;;;;5028401;28;20086;-73
2022/08/29 04:18:47;;;;;;;6.63;2.92;;;13.40;99.90;;;;;;5029610;28;20025;-73
2022/08/29 04:21:12;;;;;;;8.65;3.25;;;13.40;99.90;;;;;;5029700;28;20021;-73
2022/08/29 04:23:39;;;;;;;7.45;3.05;;;13.50;99.90;;;;;;5029821;28;20482;-73
2022/08/29 04:26:13;;;;;;;4.88;3.40;;;13.50;99.90;;;;;;5029478;28;20029;-73
2022/08/29 04:28:39;;;;;;;4.00;2.65;;;13.60;99.90;;;;;;5029780;28;20435;-73
2022/08/29 04:31:10;;;;;;;5.30;3.15;;;13.60;99.90;;;;;;5029734;28;20048;-73
2022/08/29 04:33:36;;;;;;;7.10;3.13;;;13.70;99.90;;;;;;5029525;28;20486;-73
2022/08/29 04:36:04;;;;;;;6.38;3.75;;;13.70;99.90;;;;;;5029763;28;20043;-73
2022/08/29 04:38:31;;;;;;;5.93;2.60;;;13.80;99.90;;;;;;5029301;28;20494;-73
2022/08/29 04:40:56;;;;;;;7.30;3.40;;;13.80;99.90;;;;;;5029780;28;20425;-73
2022/08/29 04:43:22;;;;;;;8.02;2.70;;;13.70;99.90;;;;;;5029386;28;20025;-73
2022/08/29 04:45:54;;;;;;;6.03;2.53;;;13.80;99.90;;;;;;5029552;28;20057;-73
2022/08/29 04:48:19;;;;;;;8.75;3.90;;;13.80;99.90;;;;;;5029326;28;20037;-73
2022/08/29 04:50:51;;;;;;;5.68;2.85;;;14.00;99.90;;;;;;5029500;28;20564;-72
2022/08/29 04:53:17;;;;;;;7.05;3.45;;;13.90;99.90;;;;;;5029607;28;20033;-73
2022/08/29 04:55:42;;;;;;;7.78;3.28;;;14.00;99.90;;;;;;5029486;28;20043;-73
2022/08/29 04:58:08;;;;;;;6.15;3.10;;;14.00;99.90;;;;;;5031827;28;20029;-73
2022/08/29 05:00:33;;;;;;;5.93;3.08;;;14.00;99.90;;;;;;5033337;28;20533;-73
2022/08/29 05:02:59;;;;;;;7.57;3.10;;;14.40;99.90;;;;;;5033133;28;20436;-73
2022/08/29 05:05:25;;;;;;;5.65;3.17;;;14.00;99.90;;;;;;5033409;28;20108;-73
2022/08/29 05:07:51;;;;;;;7.78;3.13;;;14.10;99.90;;;;;;5033159;28;20120;-73
2022/08/29 05:10:20;;;;;;;7.05;2.92;;;14.10;99.90;;;;;;5031826;28;20164;-73
2022/08/29 05:12:46;;;;;;;5.15;3.38;;;14.10;99.90;;;;;;5032613;28;20022;-73
2022/08/29 05:15:13;;;;;;;5.53;2.83;;;14.20;99.90;;;;;;5032981;28;20029;-73
2022/08/29 05:17:39;;;;;;;5.03;2.95;;;14.20;99.90;;;;;;5032863;28;20131;-73
2022/08/29 05:20:06;;;;;;;10.65;3.38;;;14.20;99.90;;;;;;5033115;28;20029;-73
2022/08/29 05:22:33;;;;;;;8.40;2.78;;;14.20;99.90;;;;;;5033143;28;20055;-73
2022/08/29 05:24:59;;;;;;;4.53;2.53;;;14.20;99.90;;;;;;5032353;28;20025;-72
2022/08/29 05:27:25;;;;;;;5.97;2.97;;;14.20;99.90;;;;;;5032438;28;20135;-73
2022/08/29 05:29:51;;;;;;;7.65;3.10;;;14.30;99.90;;;;;;5032186;28;20533;-73
2022/08/29 05:32:18;;;;;;;7.30;3.25;;;14.30;99.90;;;;;;5032184;28;20025;-73
2022/08/29 05:34:44;;;;;;;7.18;2.65;;;14.40;99.90;;;;;;5032665;28;20484;-73
2022/08/29 05:37:14;;;;;;;6.88;3.42;;;14.40;99.90;;;;;;5032691;28;20041;-73
2022/08/29 05:39:41;;;;;;;9.05;3.25;;;14.50;99.90;;;;;;5047996;28;20507;-72
2022/08/29 05:42:08;;;;;;;5.43;3.10;;;14.60;99.90;;;;;;5031067;28;20056;-72
2022/08/29 05:44:35;;;;;;;5.88;2.83;;;14.40;99.90;;;;;;5032032;28;20037;-73
2022/08/29 05:47:03;;;;;;;4.97;2.70;;;15.70;99.90;;;;;;5032304;28;20494;-73
2022/08/29 05:49:29;;;;;;;8.10;3.42;;;14.70;99.90;;;;;;5032570;28;20030;-73
2022/08/29 05:51:55;;;;;;;5.97;3.10;;;14.80;99.90;;;;;;5044671;28;20394;-73
2022/08/29 05:54:23;;;;;;;5.20;2.67;;;14.70;99.90;;;;;;5032669;28;20096;-73
2022/08/29 05:56:49;;;;;;;6.97;3.65;;;15.00;99.90;;;;;;5031236;28;20029;-73
2022/08/29 05:59:16;;;;;;;7.68;3.47;;;15.10;99.90;;;;;;5032275;28;20083;-73
2022/08/29 06:01:42;;;;;;;5.05;2.88;;;15.10;99.70;;;;;;5030888;28;20029;-72
2022/08/29 06:04:08;;;;;;;6.00;3.08;;;15.20;99.60;;;;;;5041507;28;20027;-73
2022/08/29 06:06:38;;;;;;;6.35;2.72;;;15.20;99.50;;;;;;5032215;28;20044;-73
2022/08/29 06:09:04;;;;;;;7.40;2.58;;;16.30;99.90;;;;;;5031001;28;20025;-72
2022/08/29 06:11:30;;;;;;;6.28;3.30;;;15.30;99.30;;;;;;5032175;28;20041;-73
2022/08/29 06:13:58;;;;;;;6.75;2.92;;;15.30;99.30;;;;;;5030856;28;20036;-73
2022/08/29 06:16:25;;;;;;;5.70;3.33;;;15.40;99.20;;;;;;5031923;28;20045;-73
2022/08/29 06:18:51;;;;;;;8.75;3.88;;;15.40;99.00;;;;;;5032139;28;20033;-75
2022/08/29 06:21:17;;;;;;;9.70;3.33;;;15.40;98.80;;;;;;5031859;28;20540;-75
2022/08/29 06:23:43;;;;;;;6.40;3.13;;;15.50;98.60;;;;;;5031999;28;20033;-76
2022/08/29 06:26:10;;;;;;;6.22;2.72;;;15.50;98.60;;;;;;5031961;28;20029;-75
2022/08/29 06:28:38;;;;;;;8.75;2.90;;;15.70;98.60;;;;;;5031498;28;20119;-75
2022/08/29 06:31:08;;;;;;;6.72;2.90;;;15.60;98.40;;;;;;5031910;28;20041;-76
2022/08/29 06:33:35;;;;;;;4.40;2.58;;;15.70;97.70;;;;;;5030518;28;20108;-76
2022/08/29 06:36:02;;;;;;;5.78;3.25;;;15.80;98.20;;;;;;5031675;28;20451;-74
2022/08/29 06:38:28;;;;;;;6.40;3.10;;;15.90;97.90;;;;;;5030665;28;20036;-75
2022/08/29 06:40:53;;;;;;;7.65;4.10;;;15.90;97.80;;;;;;5028490;28;20033;-75
2022/08/29 06:43:21;;;;;;;7.35;3.25;;;16.00;97.70;;;;;;5032051;28;20104;-75
2022/08/29 06:45:47;;;;;;;9.02;3.92;;;16.10;97.70;;;;;;5031637;28;20056;-74
2022/08/29 06:48:13;;;;;;;5.95;3.20;;;16.10;97.50;;;;;;5030332;28;20064;-74
2022/08/29 06:50:39;;;;;;;7.07;3.67;;;16.30;97.30;;;;;;5029682;28;20037;-74
2022/08/29 06:53:06;;;;;;;10.68;3.17;;;16.30;97.20;;;;;;5037744;28;20025;-74
2022/08/29 06:55:34;;;;;;;7.55;2.65;;;16.40;97.00;;;;;;5028586;28;20386;-75
2022/08/29 06:58:00;;;;;;;6.80;3.13;;;16.50;97.00;;;;;;5030463;28;20394;-74
2022/08/29 07:00:25;;;;;;;12.00;3.20;;;16.60;96.60;;;;;;5022513;28;20021;-75
2022/08/29 07:02:51;;;;;;;5.30;3.20;;;16.70;96.50;;;;;;5028702;28;20037;-74
2022/08/29 07:05:17;;;;;;;6.80;3.20;;;16.80;96.50;;;;;;5028744;28;20032;-74
2022/08/29 07:07:42;;;;;;;7.15;2.55;;;16.80;96.10;;;;;;5029667;28;20044;-75
2022/08/29 07:10:11;;;;;;;7.60;3.03;;;16.80;96.10;;;;;;5028371;28;20037;-74
2022/08/29 07:12:37;;;;;;;5.72;2.70;;;17.00;96.10;;;;;;5029126;28;20029;-74
2022/08/29 07:15:03;;;;;;;7.85;2.22;;;17.10;96.10;;;;;;5028495;28;20037;-73
2022/08/29 07:17:29;;;;;;;6.78;2.58;;;17.20;95.90;;;;;;5029078;28;20026;-74
2022/08/29 07:19:54;;;;;;;5.25;2.83;;;17.30;95.60;;;;;;5029184;28;20129;-75
2022/08/29 07:22:20;;;;;;;7.75;4.13;;;17.50;95.40;;;;;;5029117;28;20466;-76
2022/08/29 07:24:46;;;;;;;5.60;2.92;;;17.70;95.20;;;;;;5029532;28;20033;-75
2022/08/29 07:27:12;;;;;;;4.93;2.70;;;17.60;95.10;;;;;;5027669;28;20855;-75
2022/08/29 07:29:39;;;;;;;6.85;2.75;;;17.70;95.10;;;;;;5028662;28;20138;-75
2022/08/29 07:32:05;;;;;;;6.57;2.25;;;17.80;95.00;;;;;;5027917;28;20039;-75
2022/08/29 07:34:31;;;;;;;6.00;2.50;;;17.90;94.70;;;;;;5028395;28;20108;-75
2022/08/29 07:36:56;;;;;;;8.00;2.85;;;18.70;94.70;;;;;;5027668;28;20033;-76
2022/08/29 07:39:22;;;;;;;4.82;2.63;;;18.10;94.30;;;;;;5028840;28;20123;-75
2022/08/29 07:41:48;;;;;;;3.00;1.80;;;18.80;94.20;;;;;;5028064;28;20099;-75
2022/08/29 07:44:15;;;;;;;3.53;2.42;;;18.20;93.90;;;;;;5028224;28;20049;-75
2022/08/29 07:46:41;;;;;;;9.90;2.85;;;18.10;93.60;;;;;;5028282;28;20029;-75
2022/08/29 07:49:07;;;;;;;9.13;2.28;;;18.10;93.50;;;;;;5028540;28;20036;-76
2022/08/29 07:51:33;;;;;;;4.70;2.72;;;18.20;93.60;;;;;;5028807;28;20386;-75
2022/08/29 07:53:59;;;;;;;5.78;2.55;;;18.10;93.60;;;;;;5028463;28;20037;-75
2022/08/29 07:56:30;;;;;;;4.80;2.65;;;18.20;93.50;;;;;;5028345;28;20022;-75
2022/08/29 07:58:58;;;;;;;5.22;2.50;;;18.40;93.70;;;;;;5028554;28;20082;-74
2022/08/29 08:01:24;;;;;;;5.57;2.42;;;18.50;93.50;;;;;;5028382;28;20112;-75
2022/08/29 08:03:51;;;;;;;6.90;2.42;;;18.50;93.30;;;;;;5028835;28;20048;-74
2022/08/29 08:06:19;;;;;;;3.80;2.03;;;18.60;93.20;;;;;;5028097;28;20377;-74
2022/08/29 08:08:45;;;;;;;9.75;2.60;;;18.70;93.10;;;;;;5029395;28;20036;-75
2022/08/29 08:11:10;;;;;;;4.75;2.92;;;18.70;92.80;;;;;;5028138;28;20718;-75
2022/08/29 08:13:36;;;;;;;6.97;2.58;;;18.70;92.80;;;;;;5029735;28;20037;-75
2022/08/29 08:16:08;;;;;;;7.82;2.45;;;18.90;92.70;;;;;;5029510;28;20024;-75
2022/08/29 08:18:36;;;;;;;6.72;2.30;;;19.00;92.00;;;;;;5029679;28;20351;-75
2022/08/29 08:21:03;;;;;;;5.38;1.98;;;19.00;92.60;;;;;;5029279;28;20386;-75
2022/08/29 08:23:28;;;;;;;6.25;2.50;;;19.20;92.40;;;;;;5029323;28;20049;-74
2022/08/29 08:25:54;;;;;;;3.83;2.20;;;19.20;92.20;;;;;;5028885;28;20107;-75
2022/08/29 08:28:20;;;;;;;7.60;2.50;;;19.20;92.10;;;;;;5028698;28;20053;-75
2022/08/29 08:30:45;;;;;;;5.85;2.65;;;19.30;92.00;;;;;;5029735;28;20025;-75
2022/08/29 08:33:11;;;;;;;7.50;3.15;;;19.30;92.00;;;;;;5028494;28;20026;-75
2022/08/29 08:35:38;;;;;;;5.95;2.33;;;19.30;91.90;;;;;;5024221;28;20013;-76
2022/08/29 08:38:04;;;;;;;7.88;2.75;;;19.30;91.80;;;;;;5020838;28;20437;-75
2022/08/29 08:40:31;;;;;;;7.05;2.85;;;19.30;91.80;;;;;;5027911;28;20025;-75
2022/08/29 08:42:59;;;;;;;5.97;2.60;;;19.20;91.70;;;;;;5029242;28;20021;-75
2022/08/29 08:45:40;;;;;;;4.32;1.98;;;19.40;91.80;;;;;;5029354;28;20018;-75
2022/08/29 08:48:09;;;;;;;7.50;2.40;;;19.40;92.00;;;;;;5028088;28;20029;-75
2022/08/29 08:50:46;;;;;;;5.18;2.45;;;19.40;91.70;;;;;;5028007;28;20018;-75
2022/08/29 08:53:36;;;;;;;7.05;2.50;;;19.80;91.70;;;;;;5029124;28;20025;-76
2022/08/29 08:56:11;;;;;;;5.38;2.42;;;19.70;90.90;;;;;;5028606;28;20029;-75
2022/08/29 08:58:45;;;;;;;4.13;1.60;;;19.90;91.30;;;;;;5029561;28;20025;-75
2022/08/29 09:01:20;;;;;;;5.78;2.42;;;19.90;90.40;;;;;;5028478;28;20467;-75
2022/08/29 09:04:15;;;;;;;6.90;1.77;;;20.00;90.80;;;;;;5027029;28;20021;-75
2022/08/29 09:07:04;;;;;;;5.82;1.80;;;20.10;89.80;;;;;;5027084;28;20049;-74
2022/08/29 09:10:11;;;;;;;7.15;2.05;;;20.20;89.40;;;;;;5027083;28;20033;-75
2022/08/29 09:12:37;;;;;;;3.28;1.65;;;20.30;88.30;;;;;;5025977;28;20037;-75
2022/08/29 09:15:02;;;;;;;6.43;2.05;;;20.20;88.40;;;;;;5028093;28;20484;-76
2022/08/29 09:17:40;;;;;;;3.15;1.88;;;20.30;88.20;;;;;;5027081;28;20098;-76
2022/08/29 09:20:09;;;;;;;3.58;2.28;;;20.40;88.90;;;;;;5022432;28;20025;-75
2022/08/29 09:22:39;;;;;;;7.28;2.05;;;20.40;88.20;;;;;;5028063;28;20171;-75
2022/08/29 09:25:07;;;;;;;5.05;2.03;;;20.50;88.00;;;;;;5028794;28;20040;-75
2022/08/29 09:27:35;;;;;;;4.57;1.92;;;20.70;87.20;;;;;;5028706;28;20521;-75
2022/08/29 09:30:10;;;;;;;7.80;2.58;;;20.80;87.20;;;;;;5028782;28;20037;-76
2022/08/29 09:33:12;;;;;;;5.78;2.40;;;20.90;85.50;;;;;;5028809;28;20018;-76
2022/08/29 09:35:45;;;;;;;4.50;2.08;;;21.00;85.40;;;;;;5029049;28;20041;-76
2022/08/29 09:38:17;;;;;;;4.67;2.37;;;21.00;84.20;;;;;;5028445;28;20038;-75
2022/08/29 09:40:48;;;;;;;6.60;1.85;;;21.00;85.80;;;;;;5027726;28;20034;-75
2022/08/29 09:43:32;;;;;;;2.42;1.73;;;21.10;84.10;;;;;;5029220;28;20417;-76
2022/08/29 09:46:10;;;;;;;6.70;2.20;;;21.10;86.00;;;;;;5019154;28;20044;-75
2022/08/29 09:48:56;;;;;;;6.00;2.63;;;21.20;86.10;;;;;;5030865;28;20469;-75
2022/08/29 09:51:23;;;;;;;4.47;1.92;;;21.20;86.10;;;;;;5032326;28;20049;-75
2022/08/29 09:53:51;;;;;;;5.00;1.73;;;21.10;85.30;;;;;;5031925;28;20049;-75
2022/08/29 09:56:25;;;;;;;4.40;1.98;;;20.90;86.30;;;;;;5031628;28;20372;-75
2022/08/29 09:59:03;;;;;;;3.65;1.70;;;21.10;86.50;;;;;;5032170;28;20386;-75
2022/08/29 10:01:31;;;;;;;4.93;1.73;;;20.90;86.70;;;;;;5032089;28;20030;-73
2022/08/29 10:04:02;;;;;;;5.88;2.33;;;20.80;86.60;;;;;;5032037;28;20025;-75
2022/08/29 10:06:38;;;;;;;6.18;2.33;;;21.00;87.50;;;;;;5030238;28;20036;-73
2022/08/29 10:09:07;;;;;;;4.18;1.90;;;20.80;87.60;;;;;;5032163;28;20033;-73
2022/08/29 10:11:52;;;;;;;5.30;1.95;;;20.70;88.00;;;;;;5031999;28;20034;-73
2022/08/29 10:14:34;;;;;;;3.45;1.80;;;20.70;87.00;;;;;;5040594;28;20021;-73
2022/08/29 10:20:12;;;;;;;4.70;1.75;;;20.80;87.30;;;;;;5030250;28;20124;-72
2022/08/29 10:22:43;;;;;;;9.00;1.73;;;20.90;87.50;;;;;;5030191;28;20398;-73
2022/08/29 10:25:25;;;;;;;3.42;1.77;;;20.90;87.90;;;;;;5032079;28;20033;-73
2022/08/29 10:28:10;;;;;;;3.97;1.92;;;21.10;86.30;;;;;;5031999;28;20080;-73
2022/08/29 10:30:57;;;;;;;4.32;1.70;;;21.20;85.70;;;;;;5032702;28;20024;-73
2022/08/29 10:33:44;;;;;;;4.68;2.08;;;21.50;85.20;;;;;;5029361;28;20087;-73
2022/08/29 10:36:32;;;;;;;5.38;2.13;;;21.70;84.50;;;;;;5029978;28;20510;-73
2022/08/29 10:39:25;;;;;;;4.32;2.17;;;21.70;85.60;;;;;;5032421;28;20429;-73
2022/08/29 10:42:13;;;;;;;4.63;2.15;;;21.80;85.80;;;;;;5031639;28;20033;-74
2022/08/29 10:45:09;;;;;;;5.07;1.98;;;21.90;84.00;;;;;;5030609;28;20024;-73
2022/08/29 10:47:51;;;;;;;6.90;2.10;;;22.00;83.20;;;;;;5030624;28;20040;-74
2022/08/29 10:50:57;;;;;;;3.80;1.33;;;22.10;83.00;;;;;;5029844;28;20031;-74
2022/08/29 10:53:30;;;;;;;6.63;1.98;;;22.10;83.20;;;;;;5046587;28;20155;-73
2022/08/29 10:56:07;;;;;;;3.97;2.00;;;22.10;84.60;;;;;;5030279;28;20475;-73
2022/08/29 10:59:11;;;;;;;5.13;1.42;;;22.20;84.50;;;;;;5030413;28;20368;-74
2022/08/29 11:01:52;;;;;;;4.85;1.73;;;22.20;83.30;;;;;;5029121;28;20041;-74
2022/08/29 11:04:39;;;;;;;3.88;1.40;;;22.10;84.60;;;;;;5029927;28;20083;-73
2022/08/29 11:07:21;;;;;;;4.78;1.85;;;22.00;84.60;;;;;;5031194;28;20033;-73
2022/08/29 11:09:51;;;;;;;4.55;1.48;;;21.80;84.80;;;;;;5030500;28;20083;-73
2022/08/29 11:12:22;;;;;;;3.85;2.13;;;21.60;85.20;;;;;;5030498;28;20021;-73
2022/08/29 11:14:57;;;;;;;3.30;1.95;;;21.60;85.50;;;;;;5030901;28;20376;-73
2022/08/29 11:17:40;;;;;;;4.90;2.20;;;21.60;85.70;;;;;;5030433;28;20045;-73
2022/08/29 11:20:12;;;;;;;5.72;1.85;;;22.10;85.50;;;;;;5030364;28;20116;-74
2022/08/29 11:22:51;;;;;;;1.98;1.50;;;22.00;84.30;;;;;;5030580;28;20021;-73
2022/08/29 11:25:19;;;;;;;9.20;2.17;;;22.10;84.60;;;;;;5029897;28;20032;-73
2022/08/29 11:28:07;;;;;;;2.83;1.83;;;22.10;83.90;;;;;;5030504;28;20049;-74
2022/08/29 11:31:01;;;;;;;5.43;1.88;;;22.20;82.70;;;;;;5029786;28;20037;-73
2022/08/29 11:33:49;;;;;;;3.45;1.67;;;22.10;82.50;;;;;;5023603;28;20033;-73
2022/08/29 11:36:26;;;;;;;7.53;2.00;;;21.90;85.10;;;;;;5030381;28;20051;-73
2022/08/29 11:38:58;;;;;;;2.33;1.50;;;21.70;82.60;;;;;;5029596;28;20025;-73
2022/08/29 11:41:43;;;;;;;3.60;1.88;;;21.60;83.80;;;;;;5014247;28;20022;-73
2022/08/29 11:44:36;;;;;;;2.88;1.52;;;21.80;85.80;;;;;;5018911;28;20022;-71
2022/08/29 11:47:40;;;;;;;3.25;1.95;;;21.80;83.90;;;;;;5029021;28;20029;-73
2022/08/29 11:50:15;;;;;;;;;;;22.10;83.50;;;;;;5030594;28;20041;-72
2022/08/29 11:53:16;;;;;;;5.78;2.20;;;22.10;83.10;;;;;;5034740;28;19908;-72
2022/08/29 11:56:03;;;;;;;6.88;1.75;;;22.10;82.90;;;;;;5031959;28;21121;-72
2022/08/29 11:58:32;;;;;;;3.63;1.98;;;20.60;93.50;;;;;;5035907;28;20033;-72
2022/08/29 12:00:58;;;;;;;7.53;2.03;;;22.20;84.20;;;;;;5029630;28;20036;-72
2022/08/29 12:03:33;;;;;;;5.35;2.38;;;22.20;83.70;;;;;;5028672;28;20033;-72
2022/08/29 12:06:20;;;;;;;4.20;2.08;;;22.10;85.30;;;;;;5029788;28;20028;-72
2022/08/29 12:08:49;;;;;;;5.30;1.80;;;22.00;84.10;;;;;;5033241;28;20028;-72
2022/08/29 12:11:14;;;;;;;4.60;2.15;;;21.90;85.80;;;;;;5029411;28;20470;-72
2022/08/29 12:13:45;;;;;;;4.90;2.10;;;22.00;85.30;;;;;;5029635;28;20044;-72
2022/08/29 12:16:23;;;;;;;4.88;2.03;;;22.00;84.30;;;;;;5029261;28;20394;-72
2022/08/29 12:18:54;;;;;;;6.70;2.70;;;22.10;83.70;;;;;;5026538;28;20032;-72
2022/08/29 12:21:43;;;;;;;4.18;2.33;;;22.30;85.20;;;;;;5027773;28;20479;-72
2022/08/29 12:24:41;;;;;;;4.18;1.80;;;21.90;83.10;;;;;;5031329;28;20033;-72
2022/08/29 12:28:06;;;;;;;6.38;2.75;;;22.10;83.20;;;;;;5029250;28;20682;-72
2022/08/29 12:30:39;;;;;;;3.22;1.63;;;22.10;82.80;;;;;;4978495;28;20026;-72
2022/08/29 12:33:04;;;;;;;3.63;2.05;;;22.20;82.40;;;;;;4986699;28;20069;-72
2022/08/29 12:36:00;;;;;;;3.13;1.95;;;22.00;82.70;;;;;;4987459;28;20523;-71
2022/08/29 12:38:33;;;;;;;7.10;2.50;;;22.20;81.90;;;;;;4970966;28;20034;-71
2022/08/29 12:41:15;;;;;;;4.57;1.92;;;22.30;80.80;;;;;;4979906;28;20035;-71
2022/08/29 12:43:43;;;;;;;4.22;2.95;;;22.50;83.10;;;;;;4987809;28;20039;-71
2022/08/29 12:46:27;;;;;;;4.45;1.90;;;22.60;81.60;;;;;;4986824;28;20034;-72
2022/08/29 12:49:07;;;;;;;;;;;22.90;79.80;;;;;;4987172;28;20113;-72
2022/08/29 12:51:38;;;;;;;4.18;1.85;;;22.90;79.50;;;;;;4986306;28;19906;-72
2022/08/29 12:54:06;;;;;;;3.40;1.92;;;23.10;80.00;;;;;;4986700;28;20479;-72
2022/08/29 12:56:32;;;;;;;3.95;1.83;;;23.30;79.50;;;;;;4986184;28;20093;-72
2022/08/29 12:58:59;;;;;;;7.70;3.10;;;23.50;79.10;;;;;;4987798;28;20061;-72
2022/08/29 13:01:36;;;;;;;3.53;1.73;;;23.50;78.30;;;;;;4986676;28;20031;-72
2022/08/29 13:04:10;;;;;;;5.32;1.90;;;23.60;77.50;;;;;;5006668;28;20088;-73
2022/08/29 13:06:49;;;;;;;5.80;1.85;;;23.40;77.50;;;;;;5028942;28;20040;-73
2022/08/29 13:09:43;;;;;;;3.38;1.73;;;23.90;78.40;;;;;;5028627;28;20164;-72